sensor_id;sensor_type;location;lat;lon;timestamp;P1;durP1;ratioP1;P2;durP2;ratioP2
14060;SDS011;7105;43.616;1.434;2023-05-10T00:00:20;13.93;;;3.83;;
14060;SDS011;7105;43.616;1.434;2023-05-10T00:02:47;14.43;;;4.27;;
14060;SDS011;7105;43.616;1.434;2023-05-10T00:05:13;14.83;;;3.60;;
14060;SDS011;7105;43.616;1.434;2023-05-10T00:07:39;11.77;;;3.23;;
14060;SDS011;7105;43.616;1.434;2023-05-10T00:10:05;15.70;;;3.90;;
14060;SDS011;7105;43.616;1.434;2023-05-10T00:12:31;15.23;;;4.37;;
14060;SDS011;7105;43.616;1.434;2023-05-10T00:14:57;14.43;;;3.97;;
14060;SDS011;7105;43.616;1.434;2023-05-10T00:17:22;14.80;;;3.80;;
14060;SDS011;7105;43.616;1.434;2023-05-10T00:19:48;17.40;;;4.53;;
14060;SDS011;7105;43.616;1.434;2023-05-10T00:22:14;10.07;;;3.67;;
14060;SDS011;7105;43.616;1.434;2023-05-10T00:24:39;14.83;;;4.20;;
14060;SDS011;7105;43.616;1.434;2023-05-10T00:27:05;15.20;;;4.30;;
14060;SDS011;7105;43.616;1.434;2023-05-10T00:29:30;17.23;;;3.83;;
14060;SDS011;7105;43.616;1.434;2023-05-10T00:31:58;17.37;;;4.07;;
14060;SDS011;7105;43.616;1.434;2023-05-10T00:34:23;10.80;;;4.17;;
14060;SDS011;7105;43.616;1.434;2023-05-10T00:36:49;16.07;;;4.70;;
14060;SDS011;7105;43.616;1.434;2023-05-10T00:39:15;10.83;;;4.03;;
14060;SDS011;7105;43.616;1.434;2023-05-10T00:41:41;17.53;;;4.17;;
14060;SDS011;7105;43.616;1.434;2023-05-10T00:44:06;16.80;;;4.57;;
14060;SDS011;7105;43.616;1.434;2023-05-10T00:46:32;17.57;;;4.27;;
14060;SDS011;7105;43.616;1.434;2023-05-10T00:48:58;13.03;;;4.23;;
14060;SDS011;7105;43.616;1.434;2023-05-10T00:51:24;15.40;;;4.17;;
14060;SDS011;7105;43.616;1.434;2023-05-10T00:53:50;21.27;;;4.50;;
14060;SDS011;7105;43.616;1.434;2023-05-10T00:56:16;17.00;;;4.80;;
14060;SDS011;7105;43.616;1.434;2023-05-10T00:58:45;19.60;;;4.70;;
14060;SDS011;7105;43.616;1.434;2023-05-10T01:01:10;23.03;;;4.80;;
14060;SDS011;7105;43.616;1.434;2023-05-10T01:03:37;16.63;;;4.20;;
14060;SDS011;7105;43.616;1.434;2023-05-10T01:06:04;17.00;;;4.43;;
14060;SDS011;7105;43.616;1.434;2023-05-10T01:08:30;16.70;;;4.20;;
14060;SDS011;7105;43.616;1.434;2023-05-10T01:10:56;20.63;;;4.40;;
14060;SDS011;7105;43.616;1.434;2023-05-10T01:13:40;19.63;;;4.77;;
14060;SDS011;7105;43.616;1.434;2023-05-10T01:16:07;15.03;;;4.30;;
14060;SDS011;7105;43.616;1.434;2023-05-10T01:18:35;16.20;;;3.73;;
14060;SDS011;7105;43.616;1.434;2023-05-10T01:34:35;16.80;;;3.77;;
14060;SDS011;7105;43.616;1.434;2023-05-10T01:37:15;19.57;;;3.93;;
14060;SDS011;7105;43.616;1.434;2023-05-10T01:42:54;15.63;;;3.93;;
14060;SDS011;7105;43.616;1.434;2023-05-10T01:45:37;14.10;;;3.80;;
14060;SDS011;7105;43.616;1.434;2023-05-10T01:48:15;15.53;;;4.17;;
14060;SDS011;7105;43.616;1.434;2023-05-10T01:50:43;14.33;;;4.37;;
14060;SDS011;7105;43.616;1.434;2023-05-10T01:53:11;17.53;;;3.87;;
14060;SDS011;7105;43.616;1.434;2023-05-10T01:55:46;17.40;;;3.97;;
14060;SDS011;7105;43.616;1.434;2023-05-10T01:58:15;15.10;;;3.40;;
14060;SDS011;7105;43.616;1.434;2023-05-10T02:00:45;12.23;;;3.70;;
14060;SDS011;7105;43.616;1.434;2023-05-10T02:03:13;10.50;;;3.80;;
14060;SDS011;7105;43.616;1.434;2023-05-10T02:05:41;17.17;;;4.17;;
14060;SDS011;7105;43.616;1.434;2023-05-10T02:08:10;16.90;;;4.00;;
14060;SDS011;7105;43.616;1.434;2023-05-10T02:10:37;12.63;;;4.47;;
14060;SDS011;7105;43.616;1.434;2023-05-10T02:13:04;14.53;;;3.73;;
14060;SDS011;7105;43.616;1.434;2023-05-10T02:15:31;14.53;;;4.07;;
14060;SDS011;7105;43.616;1.434;2023-05-10T02:17:58;14.10;;;3.43;;
14060;SDS011;7105;43.616;1.434;2023-05-10T02:20:25;18.00;;;3.47;;
14060;SDS011;7105;43.616;1.434;2023-05-10T02:22:52;19.93;;;4.20;;
14060;SDS011;7105;43.616;1.434;2023-05-10T02:25:21;16.33;;;3.93;;
14060;SDS011;7105;43.616;1.434;2023-05-10T02:27:48;14.90;;;3.80;;
14060;SDS011;7105;43.616;1.434;2023-05-10T02:30:15;16.23;;;3.73;;
14060;SDS011;7105;43.616;1.434;2023-05-10T02:32:41;17.33;;;3.73;;
14060;SDS011;7105;43.616;1.434;2023-05-10T02:35:10;19.33;;;3.90;;
14060;SDS011;7105;43.616;1.434;2023-05-10T02:37:37;12.40;;;3.57;;
14060;SDS011;7105;43.616;1.434;2023-05-10T02:40:05;17.10;;;3.63;;
14060;SDS011;7105;43.616;1.434;2023-05-10T02:42:32;15.83;;;3.13;;
14060;SDS011;7105;43.616;1.434;2023-05-10T02:45:01;16.23;;;4.10;;
14060;SDS011;7105;43.616;1.434;2023-05-10T02:47:30;20.03;;;3.80;;
14060;SDS011;7105;43.616;1.434;2023-05-10T02:49:56;15.83;;;3.47;;
14060;SDS011;7105;43.616;1.434;2023-05-10T02:52:27;12.63;;;3.50;;
14060;SDS011;7105;43.616;1.434;2023-05-10T02:54:56;14.07;;;3.93;;
14060;SDS011;7105;43.616;1.434;2023-05-10T02:57:26;15.10;;;3.33;;
14060;SDS011;7105;43.616;1.434;2023-05-10T02:59:55;12.40;;;3.90;;
14060;SDS011;7105;43.616;1.434;2023-05-10T03:02:20;17.30;;;3.90;;
14060;SDS011;7105;43.616;1.434;2023-05-10T03:04:46;15.23;;;4.40;;
14060;SDS011;7105;43.616;1.434;2023-05-10T03:07:12;18.67;;;4.70;;
14060;SDS011;7105;43.616;1.434;2023-05-10T03:09:38;20.03;;;4.03;;
14060;SDS011;7105;43.616;1.434;2023-05-10T03:12:15;18.33;;;3.70;;
14060;SDS011;7105;43.616;1.434;2023-05-10T03:17:57;16.37;;;3.13;;
14060;SDS011;7105;43.616;1.434;2023-05-10T03:20:47;13.10;;;2.67;;
14060;SDS011;7105;43.616;1.434;2023-05-10T03:23:30;11.57;;;3.10;;
14060;SDS011;7105;43.616;1.434;2023-05-10T03:26:12;8.43;;;2.27;;
14060;SDS011;7105;43.616;1.434;2023-05-10T03:28:48;12.60;;;2.97;;
14060;SDS011;7105;43.616;1.434;2023-05-10T03:31:15;7.40;;;1.97;;
14060;SDS011;7105;43.616;1.434;2023-05-10T03:33:46;9.30;;;2.83;;
14060;SDS011;7105;43.616;1.434;2023-05-10T03:36:13;13.20;;;3.30;;
14060;SDS011;7105;43.616;1.434;2023-05-10T03:38:39;10.43;;;2.20;;
14060;SDS011;7105;43.616;1.434;2023-05-10T03:41:05;8.37;;;2.23;;
14060;SDS011;7105;43.616;1.434;2023-05-10T03:43:30;10.10;;;2.93;;
14060;SDS011;7105;43.616;1.434;2023-05-10T03:45:56;14.47;;;2.90;;
14060;SDS011;7105;43.616;1.434;2023-05-10T03:48:21;12.20;;;3.03;;
14060;SDS011;7105;43.616;1.434;2023-05-10T03:50:50;10.37;;;3.10;;
14060;SDS011;7105;43.616;1.434;2023-05-10T03:53:16;12.73;;;2.80;;
14060;SDS011;7105;43.616;1.434;2023-05-10T03:55:41;11.30;;;3.03;;
14060;SDS011;7105;43.616;1.434;2023-05-10T03:58:10;15.73;;;3.07;;
14060;SDS011;7105;43.616;1.434;2023-05-10T04:00:36;9.03;;;2.23;;
14060;SDS011;7105;43.616;1.434;2023-05-10T04:03:02;11.70;;;2.53;;
14060;SDS011;7105;43.616;1.434;2023-05-10T04:05:27;11.83;;;3.10;;
14060;SDS011;7105;43.616;1.434;2023-05-10T04:07:53;8.97;;;2.57;;
14060;SDS011;7105;43.616;1.434;2023-05-10T04:10:19;12.17;;;2.60;;
14060;SDS011;7105;43.616;1.434;2023-05-10T04:12:45;12.50;;;2.60;;
14060;SDS011;7105;43.616;1.434;2023-05-10T04:15:11;11.63;;;3.10;;
14060;SDS011;7105;43.616;1.434;2023-05-10T04:17:37;9.77;;;2.83;;
14060;SDS011;7105;43.616;1.434;2023-05-10T04:20:02;12.50;;;2.57;;
14060;SDS011;7105;43.616;1.434;2023-05-10T04:22:28;11.07;;;2.63;;
14060;SDS011;7105;43.616;1.434;2023-05-10T04:24:54;10.40;;;2.97;;
14060;SDS011;7105;43.616;1.434;2023-05-10T04:27:20;13.33;;;3.27;;
14060;SDS011;7105;43.616;1.434;2023-05-10T04:29:45;9.57;;;2.60;;
14060;SDS011;7105;43.616;1.434;2023-05-10T04:32:11;9.37;;;3.07;;
14060;SDS011;7105;43.616;1.434;2023-05-10T04:34:37;13.17;;;2.60;;
14060;SDS011;7105;43.616;1.434;2023-05-10T04:37:02;13.70;;;3.27;;
14060;SDS011;7105;43.616;1.434;2023-05-10T04:39:28;13.03;;;2.57;;
14060;SDS011;7105;43.616;1.434;2023-05-10T04:41:54;14.63;;;3.00;;
14060;SDS011;7105;43.616;1.434;2023-05-10T04:44:19;11.73;;;2.97;;
14060;SDS011;7105;43.616;1.434;2023-05-10T04:46:45;11.37;;;2.93;;
14060;SDS011;7105;43.616;1.434;2023-05-10T04:49:11;12.10;;;2.40;;
14060;SDS011;7105;43.616;1.434;2023-05-10T04:51:36;15.40;;;3.83;;
14060;SDS011;7105;43.616;1.434;2023-05-10T04:54:02;12.97;;;2.87;;
14060;SDS011;7105;43.616;1.434;2023-05-10T04:56:28;15.73;;;3.20;;
14060;SDS011;7105;43.616;1.434;2023-05-10T04:58:53;11.50;;;3.47;;
14060;SDS011;7105;43.616;1.434;2023-05-10T05:01:19;11.00;;;2.93;;
14060;SDS011;7105;43.616;1.434;2023-05-10T05:03:45;11.67;;;2.80;;
14060;SDS011;7105;43.616;1.434;2023-05-10T05:06:10;11.13;;;3.03;;
14060;SDS011;7105;43.616;1.434;2023-05-10T05:08:36;16.03;;;3.70;;
14060;SDS011;7105;43.616;1.434;2023-05-10T05:11:02;11.60;;;3.10;;
14060;SDS011;7105;43.616;1.434;2023-05-10T05:13:28;13.00;;;3.00;;
14060;SDS011;7105;43.616;1.434;2023-05-10T05:15:53;17.53;;;2.90;;
14060;SDS011;7105;43.616;1.434;2023-05-10T05:18:19;13.00;;;3.00;;
14060;SDS011;7105;43.616;1.434;2023-05-10T05:20:45;13.77;;;3.13;;
14060;SDS011;7105;43.616;1.434;2023-05-10T05:23:11;15.37;;;3.47;;
14060;SDS011;7105;43.616;1.434;2023-05-10T05:25:36;14.07;;;3.00;;
14060;SDS011;7105;43.616;1.434;2023-05-10T05:28:02;10.83;;;2.57;;
14060;SDS011;7105;43.616;1.434;2023-05-10T05:30:28;15.07;;;3.77;;
14060;SDS011;7105;43.616;1.434;2023-05-10T05:32:54;12.90;;;3.00;;
14060;SDS011;7105;43.616;1.434;2023-05-10T05:35:19;9.50;;;2.70;;
14060;SDS011;7105;43.616;1.434;2023-05-10T05:37:45;14.63;;;3.30;;
14060;SDS011;7105;43.616;1.434;2023-05-10T05:40:14;10.20;;;2.77;;
14060;SDS011;7105;43.616;1.434;2023-05-10T05:42:40;8.57;;;2.30;;
14060;SDS011;7105;43.616;1.434;2023-05-10T05:45:06;11.10;;;3.50;;
14060;SDS011;7105;43.616;1.434;2023-05-10T05:47:33;14.07;;;2.80;;
14060;SDS011;7105;43.616;1.434;2023-05-10T05:49:59;14.00;;;3.27;;
14060;SDS011;7105;43.616;1.434;2023-05-10T05:52:25;8.63;;;3.00;;
14060;SDS011;7105;43.616;1.434;2023-05-10T05:54:50;14.33;;;3.17;;
14060;SDS011;7105;43.616;1.434;2023-05-10T05:57:16;13.47;;;2.80;;
14060;SDS011;7105;43.616;1.434;2023-05-10T05:59:45;12.50;;;2.90;;
14060;SDS011;7105;43.616;1.434;2023-05-10T06:02:11;9.70;;;2.53;;
14060;SDS011;7105;43.616;1.434;2023-05-10T06:04:36;11.63;;;3.33;;
14060;SDS011;7105;43.616;1.434;2023-05-10T06:07:02;11.93;;;2.70;;
14060;SDS011;7105;43.616;1.434;2023-05-10T06:09:28;12.10;;;2.70;;
14060;SDS011;7105;43.616;1.434;2023-05-10T06:11:53;11.77;;;3.13;;
14060;SDS011;7105;43.616;1.434;2023-05-10T06:14:20;15.10;;;3.40;;
14060;SDS011;7105;43.616;1.434;2023-05-10T06:16:46;13.00;;;3.30;;
14060;SDS011;7105;43.616;1.434;2023-05-10T06:19:11;12.30;;;3.93;;
14060;SDS011;7105;43.616;1.434;2023-05-10T06:21:39;14.73;;;3.73;;
14060;SDS011;7105;43.616;1.434;2023-05-10T06:24:05;18.33;;;3.67;;
14060;SDS011;7105;43.616;1.434;2023-05-10T06:26:31;14.23;;;3.57;;
14060;SDS011;7105;43.616;1.434;2023-05-10T06:28:58;16.00;;;3.43;;
14060;SDS011;7105;43.616;1.434;2023-05-10T06:31:23;13.67;;;2.90;;
14060;SDS011;7105;43.616;1.434;2023-05-10T06:33:49;10.50;;;3.33;;
14060;SDS011;7105;43.616;1.434;2023-05-10T06:36:14;10.83;;;3.23;;
14060;SDS011;7105;43.616;1.434;2023-05-10T06:38:40;13.93;;;3.00;;
14060;SDS011;7105;43.616;1.434;2023-05-10T06:41:06;12.50;;;2.90;;
14060;SDS011;7105;43.616;1.434;2023-05-10T06:43:31;13.93;;;2.90;;
14060;SDS011;7105;43.616;1.434;2023-05-10T06:45:57;11.13;;;3.00;;
14060;SDS011;7105;43.616;1.434;2023-05-10T06:48:23;12.80;;;3.03;;
14060;SDS011;7105;43.616;1.434;2023-05-10T06:50:48;12.23;;;3.30;;
14060;SDS011;7105;43.616;1.434;2023-05-10T06:53:14;15.17;;;3.40;;
14060;SDS011;7105;43.616;1.434;2023-05-10T06:55:40;13.17;;;2.80;;
14060;SDS011;7105;43.616;1.434;2023-05-10T06:58:06;9.03;;;2.80;;
14060;SDS011;7105;43.616;1.434;2023-05-10T07:00:32;10.00;;;2.83;;
14060;SDS011;7105;43.616;1.434;2023-05-10T07:02:57;13.27;;;3.13;;
14060;SDS011;7105;43.616;1.434;2023-05-10T07:05:23;13.20;;;3.00;;
14060;SDS011;7105;43.616;1.434;2023-05-10T07:07:49;7.20;;;2.53;;
14060;SDS011;7105;43.616;1.434;2023-05-10T07:10:15;10.68;;;2.58;;
14060;SDS011;7105;43.616;1.434;2023-05-10T07:12:41;11.05;;;2.83;;
14060;SDS011;7105;43.616;1.434;2023-05-10T07:15:06;10.20;;;3.47;;
14060;SDS011;7105;43.616;1.434;2023-05-10T07:17:33;8.63;;;2.70;;
14060;SDS011;7105;43.616;1.434;2023-05-10T07:19:59;8.82;;;2.65;;
14060;SDS011;7105;43.616;1.434;2023-05-10T07:22:25;11.75;;;2.90;;
14060;SDS011;7105;43.616;1.434;2023-05-10T07:24:51;8.15;;;2.42;;
14060;SDS011;7105;43.616;1.434;2023-05-10T07:27:16;10.25;;;3.10;;
14060;SDS011;7105;43.616;1.434;2023-05-10T07:29:44;14.60;;;2.70;;
14060;SDS011;7105;43.616;1.434;2023-05-10T07:32:10;9.65;;;2.63;;
14060;SDS011;7105;43.616;1.434;2023-05-10T07:34:36;10.82;;;2.80;;
14060;SDS011;7105;43.616;1.434;2023-05-10T07:37:01;9.93;;;2.80;;
14060;SDS011;7105;43.616;1.434;2023-05-10T07:39:27;15.13;;;3.53;;
14060;SDS011;7105;43.616;1.434;2023-05-10T07:41:53;14.13;;;2.90;;
14060;SDS011;7105;43.616;1.434;2023-05-10T07:44:20;18.57;;;3.13;;
14060;SDS011;7105;43.616;1.434;2023-05-10T07:46:46;15.93;;;2.70;;
14060;SDS011;7105;43.616;1.434;2023-05-10T07:49:12;17.30;;;2.90;;
14060;SDS011;7105;43.616;1.434;2023-05-10T07:51:38;11.47;;;3.10;;
14060;SDS011;7105;43.616;1.434;2023-05-10T07:54:04;15.57;;;2.80;;
14060;SDS011;7105;43.616;1.434;2023-05-10T07:56:30;8.77;;;2.83;;
14060;SDS011;7105;43.616;1.434;2023-05-10T07:58:57;9.70;;;2.13;;
14060;SDS011;7105;43.616;1.434;2023-05-10T08:01:24;11.33;;;2.50;;
14060;SDS011;7105;43.616;1.434;2023-05-10T08:03:50;11.53;;;2.90;;
14060;SDS011;7105;43.616;1.434;2023-05-10T08:06:19;12.83;;;3.00;;
14060;SDS011;7105;43.616;1.434;2023-05-10T08:08:46;11.87;;;2.90;;
14060;SDS011;7105;43.616;1.434;2023-05-10T08:11:15;10.97;;;2.77;;
14060;SDS011;7105;43.616;1.434;2023-05-10T08:13:44;12.80;;;2.80;;
14060;SDS011;7105;43.616;1.434;2023-05-10T08:16:10;8.85;;;2.72;;
14060;SDS011;7105;43.616;1.434;2023-05-10T08:18:36;8.95;;;2.40;;
14060;SDS011;7105;43.616;1.434;2023-05-10T08:21:02;14.50;;;3.10;;
14060;SDS011;7105;43.616;1.434;2023-05-10T08:23:28;9.20;;;2.33;;
14060;SDS011;7105;43.616;1.434;2023-05-10T08:25:54;13.43;;;3.20;;
14060;SDS011;7105;43.616;1.434;2023-05-10T08:28:19;10.68;;;2.85;;
14060;SDS011;7105;43.616;1.434;2023-05-10T08:30:45;11.43;;;2.72;;
14060;SDS011;7105;43.616;1.434;2023-05-10T08:33:10;9.27;;;2.60;;
14060;SDS011;7105;43.616;1.434;2023-05-10T08:35:36;10.27;;;2.45;;
14060;SDS011;7105;43.616;1.434;2023-05-10T08:38:02;10.27;;;2.63;;
14060;SDS011;7105;43.616;1.434;2023-05-10T08:40:27;8.82;;;2.63;;
14060;SDS011;7105;43.616;1.434;2023-05-10T08:43:04;8.95;;;2.42;;
14060;SDS011;7105;43.616;1.434;2023-05-10T08:45:41;9.27;;;2.92;;
14060;SDS011;7105;43.616;1.434;2023-05-10T08:48:11;12.32;;;2.67;;
14060;SDS011;7105;43.616;1.434;2023-05-10T08:50:40;6.50;;;2.00;;
14060;SDS011;7105;43.616;1.434;2023-05-10T08:53:11;9.65;;;2.63;;
14060;SDS011;7105;43.616;1.434;2023-05-10T08:55:38;11.40;;;2.22;;
14060;SDS011;7105;43.616;1.434;2023-05-10T08:58:05;12.40;;;2.80;;
14060;SDS011;7105;43.616;1.434;2023-05-10T09:00:32;7.78;;;2.10;;
14060;SDS011;7105;43.616;1.434;2023-05-10T09:02:58;8.82;;;2.13;;
14060;SDS011;7105;43.616;1.434;2023-05-10T09:05:25;8.93;;;2.03;;
14060;SDS011;7105;43.616;1.434;2023-05-10T09:07:51;8.02;;;1.90;;
14060;SDS011;7105;43.616;1.434;2023-05-10T09:10:16;8.30;;;2.40;;
14060;SDS011;7105;43.616;1.434;2023-05-10T09:12:43;9.38;;;2.42;;
14060;SDS011;7105;43.616;1.434;2023-05-10T09:15:10;9.50;;;2.08;;
14060;SDS011;7105;43.616;1.434;2023-05-10T09:17:37;7.47;;;2.05;;
14060;SDS011;7105;43.616;1.434;2023-05-10T09:20:07;8.75;;;2.20;;
14060;SDS011;7105;43.616;1.434;2023-05-10T09:22:33;7.40;;;2.33;;
14060;SDS011;7105;43.616;1.434;2023-05-10T09:27:32;6.30;;;1.90;;
14060;SDS011;7105;43.616;1.434;2023-05-10T09:29:58;8.77;;;2.28;;
14060;SDS011;7105;43.616;1.434;2023-05-10T09:32:45;7.22;;;2.00;;
14060;SDS011;7105;43.616;1.434;2023-05-10T09:35:13;8.02;;;2.17;;
14060;SDS011;7105;43.616;1.434;2023-05-10T09:37:41;8.05;;;2.08;;
14060;SDS011;7105;43.616;1.434;2023-05-10T09:40:11;8.13;;;2.15;;
14060;SDS011;7105;43.616;1.434;2023-05-10T09:42:51;9.13;;;2.00;;
14060;SDS011;7105;43.616;1.434;2023-05-10T09:45:24;7.72;;;2.55;;
14060;SDS011;7105;43.616;1.434;2023-05-10T09:47:51;6.90;;;1.65;;
14060;SDS011;7105;43.616;1.434;2023-05-10T09:50:18;5.97;;;1.75;;
14060;SDS011;7105;43.616;1.434;2023-05-10T09:52:55;7.95;;;1.92;;
14060;SDS011;7105;43.616;1.434;2023-05-10T09:55:24;6.85;;;1.77;;
14060;SDS011;7105;43.616;1.434;2023-05-10T09:58:00;7.40;;;2.33;;
14060;SDS011;7105;43.616;1.434;2023-05-10T10:00:26;10.77;;;2.45;;
14060;SDS011;7105;43.616;1.434;2023-05-10T10:02:56;8.63;;;2.20;;
14060;SDS011;7105;43.616;1.434;2023-05-10T10:05:30;8.00;;;1.80;;
14060;SDS011;7105;43.616;1.434;2023-05-10T10:07:57;7.33;;;2.30;;
14060;SDS011;7105;43.616;1.434;2023-05-10T10:10:24;8.83;;;2.47;;
14060;SDS011;7105;43.616;1.434;2023-05-10T10:12:51;6.97;;;2.30;;
14060;SDS011;7105;43.616;1.434;2023-05-10T10:15:17;9.10;;;2.17;;
14060;SDS011;7105;43.616;1.434;2023-05-10T10:17:43;11.47;;;2.30;;
14060;SDS011;7105;43.616;1.434;2023-05-10T10:20:09;6.88;;;2.03;;
14060;SDS011;7105;43.616;1.434;2023-05-10T10:22:36;7.35;;;2.17;;
14060;SDS011;7105;43.616;1.434;2023-05-10T10:25:02;10.80;;;2.35;;
14060;SDS011;7105;43.616;1.434;2023-05-10T10:27:34;9.05;;;1.83;;
14060;SDS011;7105;43.616;1.434;2023-05-10T10:35:29;3.35;;;1.20;;
14060;SDS011;7105;43.616;1.434;2023-05-10T10:37:55;7.50;;;1.67;;
14060;SDS011;7105;43.616;1.434;2023-05-10T10:42:55;5.80;;;1.73;;
14060;SDS011;7105;43.616;1.434;2023-05-10T10:45:22;6.53;;;1.73;;
14060;SDS011;7105;43.616;1.434;2023-05-10T10:47:48;5.25;;;2.40;;
14060;SDS011;7105;43.616;1.434;2023-05-10T10:50:45;8.05;;;2.35;;
14060;SDS011;7105;43.616;1.434;2023-05-10T10:53:11;9.15;;;1.95;;
14060;SDS011;7105;43.616;1.434;2023-05-10T10:55:45;5.93;;;1.85;;
14060;SDS011;7105;43.616;1.434;2023-05-10T10:58:28;8.23;;;1.92;;
14060;SDS011;7105;43.616;1.434;2023-05-10T11:04:04;6.65;;;2.10;;
14060;SDS011;7105;43.616;1.434;2023-05-10T11:08:59;9.30;;;2.55;;
14060;SDS011;7105;43.616;1.434;2023-05-10T11:11:36;8.20;;;2.90;;
14060;SDS011;7105;43.616;1.434;2023-05-10T11:14:13;9.73;;;2.40;;
14060;SDS011;7105;43.616;1.434;2023-05-10T11:16:45;6.30;;;2.30;;
14060;SDS011;7105;43.616;1.434;2023-05-10T11:19:11;7.40;;;2.70;;
14060;SDS011;7105;43.616;1.434;2023-05-10T11:21:45;9.00;;;2.30;;
14060;SDS011;7105;43.616;1.434;2023-05-10T11:24:13;11.90;;;2.60;;
14060;SDS011;7105;43.616;1.434;2023-05-10T11:26:41;10.07;;;2.13;;
14060;SDS011;7105;43.616;1.434;2023-05-10T11:29:10;8.07;;;2.00;;
14060;SDS011;7105;43.616;1.434;2023-05-10T11:31:41;9.30;;;2.50;;
14060;SDS011;7105;43.616;1.434;2023-05-10T11:34:12;6.53;;;1.67;;
14060;SDS011;7105;43.616;1.434;2023-05-10T11:36:52;7.13;;;2.33;;
14060;SDS011;7105;43.616;1.434;2023-05-10T11:39:19;8.40;;;1.97;;
14060;SDS011;7105;43.616;1.434;2023-05-10T11:41:47;6.70;;;2.23;;
14060;SDS011;7105;43.616;1.434;2023-05-10T11:44:13;7.93;;;2.00;;
14060;SDS011;7105;43.616;1.434;2023-05-10T11:46:39;7.67;;;1.90;;
14060;SDS011;7105;43.616;1.434;2023-05-10T11:49:06;9.83;;;2.00;;
14060;SDS011;7105;43.616;1.434;2023-05-10T11:51:35;4.57;;;1.60;;
14060;SDS011;7105;43.616;1.434;2023-05-10T11:54:02;4.57;;;1.80;;
14060;SDS011;7105;43.616;1.434;2023-05-10T11:56:32;5.83;;;1.27;;
14060;SDS011;7105;43.616;1.434;2023-05-10T11:58:58;6.50;;;1.70;;
14060;SDS011;7105;43.616;1.434;2023-05-10T12:01:26;6.37;;;1.70;;
14060;SDS011;7105;43.616;1.434;2023-05-10T12:03:53;3.60;;;1.27;;
14060;SDS011;7105;43.616;1.434;2023-05-10T12:06:25;3.83;;;1.50;;
14060;SDS011;7105;43.616;1.434;2023-05-10T12:08:53;5.00;;;2.30;;
14060;SDS011;7105;43.616;1.434;2023-05-10T12:11:19;6.60;;;1.60;;
14060;SDS011;7105;43.616;1.434;2023-05-10T12:13:46;6.67;;;1.53;;
14060;SDS011;7105;43.616;1.434;2023-05-10T12:16:19;5.00;;;1.37;;
14060;SDS011;7105;43.616;1.434;2023-05-10T12:18:50;4.60;;;1.30;;
14060;SDS011;7105;43.616;1.434;2023-05-10T12:21:16;5.43;;;1.47;;
14060;SDS011;7105;43.616;1.434;2023-05-10T12:23:43;4.43;;;1.53;;
14060;SDS011;7105;43.616;1.434;2023-05-10T12:26:11;5.07;;;1.40;;
14060;SDS011;7105;43.616;1.434;2023-05-10T12:28:37;5.37;;;1.23;;
14060;SDS011;7105;43.616;1.434;2023-05-10T12:31:04;4.47;;;1.20;;
14060;SDS011;7105;43.616;1.434;2023-05-10T12:33:41;4.07;;;1.50;;
14060;SDS011;7105;43.616;1.434;2023-05-10T12:36:12;3.73;;;1.47;;
14060;SDS011;7105;43.616;1.434;2023-05-10T12:38:42;3.17;;;1.27;;
14060;SDS011;7105;43.616;1.434;2023-05-10T12:41:13;7.57;;;1.70;;
14060;SDS011;7105;43.616;1.434;2023-05-10T12:43:40;4.50;;;1.30;;
14060;SDS011;7105;43.616;1.434;2023-05-10T12:46:06;5.60;;;1.60;;
14060;SDS011;7105;43.616;1.434;2023-05-10T12:48:34;8.27;;;2.00;;
14060;SDS011;7105;43.616;1.434;2023-05-10T12:51:01;7.20;;;1.60;;
14060;SDS011;7105;43.616;1.434;2023-05-10T12:53:27;5.57;;;1.40;;
14060;SDS011;7105;43.616;1.434;2023-05-10T12:55:53;7.90;;;1.73;;
14060;SDS011;7105;43.616;1.434;2023-05-10T12:58:18;5.90;;;1.73;;
14060;SDS011;7105;43.616;1.434;2023-05-10T13:00:45;6.32;;;1.42;;
14060;SDS011;7105;43.616;1.434;2023-05-10T13:03:10;7.80;;;1.48;;
14060;SDS011;7105;43.616;1.434;2023-05-10T13:05:36;6.45;;;1.80;;
14060;SDS011;7105;43.616;1.434;2023-05-10T13:08:02;3.63;;;1.40;;
14060;SDS011;7105;43.616;1.434;2023-05-10T13:10:31;4.70;;;1.35;;
14060;SDS011;7105;43.616;1.434;2023-05-10T13:12:57;5.88;;;1.35;;
14060;SDS011;7105;43.616;1.434;2023-05-10T13:15:23;3.75;;;1.05;;
14060;SDS011;7105;43.616;1.434;2023-05-10T13:17:49;5.18;;;1.35;;
14060;SDS011;7105;43.616;1.434;2023-05-10T13:20:15;4.82;;;1.10;;
14060;SDS011;7105;43.616;1.434;2023-05-10T13:22:42;3.80;;;1.23;;
14060;SDS011;7105;43.616;1.434;2023-05-10T13:25:11;4.93;;;1.20;;
14060;SDS011;7105;43.616;1.434;2023-05-10T13:27:40;2.85;;;1.02;;
14060;SDS011;7105;43.616;1.434;2023-05-10T13:30:06;2.25;;;1.10;;
14060;SDS011;7105;43.616;1.434;2023-05-10T13:32:33;4.22;;;1.00;;
14060;SDS011;7105;43.616;1.434;2023-05-10T13:34:59;5.13;;;1.42;;
14060;SDS011;7105;43.616;1.434;2023-05-10T13:37:24;3.05;;;1.02;;
14060;SDS011;7105;43.616;1.434;2023-05-10T13:39:50;5.65;;;1.23;;
14060;SDS011;7105;43.616;1.434;2023-05-10T13:42:16;4.88;;;1.17;;
14060;SDS011;7105;43.616;1.434;2023-05-10T13:44:43;8.27;;;1.65;;
14060;SDS011;7105;43.616;1.434;2023-05-10T13:47:11;4.70;;;1.10;;
14060;SDS011;7105;43.616;1.434;2023-05-10T13:49:37;4.00;;;1.10;;
14060;SDS011;7105;43.616;1.434;2023-05-10T13:52:02;6.43;;;1.40;;
14060;SDS011;7105;43.616;1.434;2023-05-10T13:54:34;5.72;;;1.08;;
14060;SDS011;7105;43.616;1.434;2023-05-10T13:57:01;10.32;;;1.75;;
14060;SDS011;7105;43.616;1.434;2023-05-10T13:59:26;3.93;;;1.20;;
14060;SDS011;7105;43.616;1.434;2023-05-10T14:01:52;3.72;;;1.40;;
14060;SDS011;7105;43.616;1.434;2023-05-10T14:04:18;6.72;;;1.35;;
14060;SDS011;7105;43.616;1.434;2023-05-10T14:06:43;4.72;;;1.50;;
14060;SDS011;7105;43.616;1.434;2023-05-10T14:09:09;6.13;;;1.50;;
14060;SDS011;7105;43.616;1.434;2023-05-10T14:11:35;4.00;;;1.13;;
14060;SDS011;7105;43.616;1.434;2023-05-10T14:14:00;2.93;;;1.40;;
14060;SDS011;7105;43.616;1.434;2023-05-10T14:16:26;6.27;;;1.60;;
14060;SDS011;7105;43.616;1.434;2023-05-10T14:18:52;5.60;;;1.10;;
14060;SDS011;7105;43.616;1.434;2023-05-10T14:21:17;4.70;;;1.40;;
14060;SDS011;7105;43.616;1.434;2023-05-10T14:23:43;7.47;;;1.87;;
14060;SDS011;7105;43.616;1.434;2023-05-10T14:26:09;6.07;;;1.63;;
14060;SDS011;7105;43.616;1.434;2023-05-10T14:28:34;5.13;;;1.40;;
14060;SDS011;7105;43.616;1.434;2023-05-10T14:31:00;6.70;;;1.60;;
14060;SDS011;7105;43.616;1.434;2023-05-10T14:33:26;6.77;;;1.63;;
14060;SDS011;7105;43.616;1.434;2023-05-10T14:35:53;9.53;;;2.10;;
14060;SDS011;7105;43.616;1.434;2023-05-10T14:38:21;7.70;;;1.70;;
14060;SDS011;7105;43.616;1.434;2023-05-10T14:40:47;8.87;;;6.10;;
14060;SDS011;7105;43.616;1.434;2023-05-10T14:43:12;7.13;;;1.80;;
14060;SDS011;7105;43.616;1.434;2023-05-10T14:45:38;3.50;;;1.30;;
14060;SDS011;7105;43.616;1.434;2023-05-10T14:48:04;4.87;;;1.37;;
14060;SDS011;7105;43.616;1.434;2023-05-10T14:50:30;3.37;;;1.27;;
14060;SDS011;7105;43.616;1.434;2023-05-10T14:52:56;6.50;;;1.80;;
14060;SDS011;7105;43.616;1.434;2023-05-10T14:55:23;5.87;;;1.70;;
14060;SDS011;7105;43.616;1.434;2023-05-10T14:57:48;5.97;;;2.77;;
14060;SDS011;7105;43.616;1.434;2023-05-10T15:00:15;5.47;;;1.53;;
14060;SDS011;7105;43.616;1.434;2023-05-10T15:02:41;3.47;;;1.20;;
14060;SDS011;7105;43.616;1.434;2023-05-10T15:05:07;6.80;;;1.70;;
14060;SDS011;7105;43.616;1.434;2023-05-10T15:07:33;4.88;;;1.38;;
14060;SDS011;7105;43.616;1.434;2023-05-10T15:09:58;4.05;;;1.38;;
14060;SDS011;7105;43.616;1.434;2023-05-10T15:12:24;3.17;;;1.20;;
14060;SDS011;7105;43.616;1.434;2023-05-10T15:14:50;6.00;;;1.58;;
14060;SDS011;7105;43.616;1.434;2023-05-10T15:17:15;5.28;;;1.58;;
14060;SDS011;7105;43.616;1.434;2023-05-10T15:19:41;4.53;;;1.63;;
14060;SDS011;7105;43.616;1.434;2023-05-10T15:22:07;7.10;;;1.70;;
14060;SDS011;7105;43.616;1.434;2023-05-10T15:24:33;4.18;;;1.42;;
14060;SDS011;7105;43.616;1.434;2023-05-10T15:26:59;5.15;;;1.63;;
14060;SDS011;7105;43.616;1.434;2023-05-10T15:29:25;1.88;;;1.00;;
14060;SDS011;7105;43.616;1.434;2023-05-10T15:31:51;6.88;;;1.92;;